Time;durP1;ratioP1;P1;durP2;ratioP2;P2;SDS_P1;SDS_P2;PMS_P1;PMS_P2;Temp;Humidity;BMP_temperature;BMP_pressure;BME280_temperature;BME280_humidity;BME280_pressure;Samples;Min_cycle;Max_cycle;Signal;HPM_P1;HPM_P2
2022/11/18 00:00:47;;;;;;;1.23;0.70;;;9.00;69.40;;;;;;5085014;27;46357;-70
2022/11/18 00:03:12;;;;;;;1.43;0.70;;;9.00;68.30;;;;;;5084881;27;46460;-70
2022/11/18 00:05:38;;;;;;;1.20;0.70;;;9.00;69.10;;;;;;5087100;27;46684;-71
2022/11/18 00:08:03;;;;;;;1.57;0.70;;;9.10;68.80;;;;;;5086053;27;46496;-70
2022/11/18 00:10:29;;;;;;;1.80;0.80;;;9.30;67.80;;;;;;5084630;27;47941;-70
2022/11/18 00:15:40;;;;;;;1.47;0.70;;;9.20;68.60;;;;;;5088773;27;46665;-70
2022/11/18 00:18:05;;;;;;;2.50;0.90;;;9.20;67.40;;;;;;5088781;27;46539;-69
2022/11/18 00:20:32;;;;;;;1.13;0.70;;;9.20;68.50;;;;;;5084856;27;46415;-68
2022/11/18 00:22:58;;;;;;;1.17;0.70;;;9.30;67.60;;;;;;5085867;27;45840;-70
2022/11/18 00:25:24;;;;;;;1.40;0.60;;;9.30;68.60;;;;;;5082706;27;46595;-69
2022/11/18 00:27:50;;;;;;;2.17;0.90;;;9.30;68.40;;;;;;5112727;27;46345;-70
2022/11/18 00:30:16;;;;;;;2.13;0.70;;;9.30;68.40;;;;;;5082590;27;47410;-71
2022/11/18 00:32:41;;;;;;;1.83;0.80;;;9.30;67.50;;;;;;5089002;27;46493;-71
2022/11/18 00:35:07;;;;;;;1.20;0.80;;;9.40;68.40;;;;;;5085699;27;46426;-71
2022/11/18 00:37:33;;;;;;;1.33;0.73;;;9.30;68.40;;;;;;5114438;27;46497;-71
2022/11/18 00:39:58;;;;;;;1.50;0.80;;;9.30;68.40;;;;;;5084672;27;46527;-70
2022/11/18 00:45:09;;;;;;;1.40;0.60;;;9.30;67.30;;;;;;5083885;27;46504;-71
2022/11/18 00:47:35;;;;;;;2.50;0.73;;;9.30;68.50;;;;;;5083759;27;46890;-71
2022/11/18 00:50:00;;;;;;;1.50;0.90;;;9.30;68.60;;;;;;5087243;27;46443;-70
2022/11/18 00:52:26;;;;;;;1.57;0.77;;;9.20;67.70;;;;;;5085359;27;46333;-70
2022/11/18 00:54:51;;;;;;;3.83;0.87;;;9.20;68.60;;;;;;5081487;27;46567;-69
2022/11/18 00:57:17;;;;;;;1.43;0.70;;;9.20;68.80;;;;;;5081887;27;46569;-71
2022/11/18 00:59:42;;;;;;;1.53;0.83;;;9.20;68.70;;;;;;5084475;27;46633;-70
2022/11/18 01:02:08;;;;;;;1.60;0.83;;;9.20;68.80;;;;;;5084297;27;46717;-71
2022/11/18 01:04:34;;;;;;;1.17;0.70;;;9.20;67.40;;;;;;5083822;27;45917;-69
2022/11/18 01:06:59;;;;;;;3.73;0.80;;;9.30;68.40;;;;;;5083844;27;46524;-71
2022/11/18 01:09:25;;;;;;;1.73;0.77;;;9.30;68.50;;;;;;5080726;27;46413;-71
2022/11/18 01:14:35;;;;;;;3.80;0.70;;;9.20;67.40;;;;;;5081255;27;46403;-70
2022/11/18 01:17:00;;;;;;;1.10;0.70;;;9.20;68.50;;;;;;5084211;27;46688;-70
2022/11/18 01:19:26;;;;;;;1.23;0.77;;;9.20;68.50;;;;;;5083981;27;47183;-70
2022/11/18 01:21:52;;;;;;;2.00;1.00;;;9.20;68.50;;;;;;5087289;27;46456;-70
2022/11/18 01:24:17;;;;;;;1.27;0.70;;;9.20;67.50;;;;;;5082517;27;46372;-72
2022/11/18 01:26:43;;;;;;;2.10;0.80;;;9.30;68.50;;;;;;5086145;27;46892;-71
2022/11/18 01:29:09;;;;;;;1.00;0.60;;;9.30;68.20;;;;;;5083474;27;49304;-71
2022/11/18 01:31:36;;;;;;;1.50;0.90;;;9.30;68.20;;;;;;5089186;27;46397;-72
2022/11/18 01:34:02;;;;;;;2.37;1.10;;;9.30;67.30;;;;;;5083631;27;46375;-71
2022/11/18 01:36:28;;;;;;;1.60;0.90;;;9.30;68.40;;;;;;5082104;27;46290;-70
2022/11/18 01:38:54;;;;;;;2.90;0.87;;;9.30;68.60;;;;;;5081100;27;46502;-71
2022/11/18 01:41:24;;;;;;;1.53;0.93;;;9.20;68.70;;;;;;5082894;27;46500;-71
2022/11/18 01:44:00;;;;;;;1.50;0.80;;;9.20;67.80;;;;;;5083066;27;46193;-72
2022/11/18 01:46:28;;;;;;;1.60;0.70;;;9.20;68.90;;;;;;5085180;27;46841;-71
2022/11/18 01:49:03;;;;;;;2.90;0.90;;;9.20;69.10;;;;;;5081879;27;47493;-71
2022/11/18 01:51:36;;;;;;;1.70;0.80;;;9.20;69.00;;;;;;5079900;27;46416;-70
2022/11/18 01:54:13;;;;;;;2.47;0.90;;;9.20;67.80;;;;;;5085321;27;46384;-71
2022/11/18 01:56:46;;;;;;;1.50;0.90;;;9.20;68.80;;;;;;5083853;27;46690;-71
2022/11/18 01:59:16;;;;;;;3.00;0.83;;;9.30;68.80;;;;;;5082251;27;47420;-69
2022/11/18 02:01:42;;;;;;;3.00;0.90;;;9.30;68.70;;;;;;5084528;27;46666;-71
2022/11/18 02:04:08;;;;;;;2.70;1.10;;;9.30;67.60;;;;;;5080996;27;47540;-71
2022/11/18 02:06:35;;;;;;;1.40;0.80;;;9.30;68.70;;;;;;5084377;27;45976;-70
2022/11/18 02:09:02;;;;;;;1.40;0.70;;;9.30;68.80;;;;;;5080998;27;47223;-72
2022/11/18 02:14:13;;;;;;;2.07;0.90;;;9.20;68.00;;;;;;5079222;27;46610;-71
2022/11/18 02:16:45;;;;;;;3.57;0.97;;;9.20;69.10;;;;;;5083400;27;46462;-72
2022/11/18 02:19:23;;;;;;;1.57;0.80;;;9.20;69.40;;;;;;5082900;27;46468;-70
2022/11/18 02:22:11;;;;;;;2.70;0.80;;;9.20;69.40;;;;;;5085163;27;46574;-71
2022/11/18 02:25:06;;;;;;;1.43;0.73;;;9.20;68.30;;;;;;5082801;27;46454;-70
2022/11/18 02:27:56;;;;;;;3.80;0.80;;;9.20;69.50;;;;;;5084268;27;46536;-70
2022/11/18 02:30:22;;;;;;;2.40;0.90;;;9.20;69.50;;;;;;5080465;27;46503;-70
2022/11/18 02:33:06;;;;;;;2.10;0.90;;;9.20;69.50;;;;;;5085568;27;46274;-69
2022/11/18 02:36:00;;;;;;;1.40;1.00;;;9.10;69.60;;;;;;5083130;27;46378;-70
2022/11/18 02:38:33;;;;;;;1.53;0.77;;;9.10;69.70;;;;;;5084547;27;46300;-70
2022/11/18 02:41:05;;;;;;;1.73;0.80;;;9.10;69.70;;;;;;5084729;27;46416;-71
2022/11/18 02:43:35;;;;;;;1.50;0.90;;;9.10;69.90;;;;;;5084868;27;46627;-70
2022/11/18 02:46:07;;;;;;;1.87;0.90;;;9.10;70.00;;;;;;5086757;27;46765;-70
2022/11/18 02:48:38;;;;;;;2.70;0.80;;;9.00;70.00;;;;;;5087425;27;46404;-71
2022/11/18 02:51:06;;;;;;;1.07;0.70;;;9.00;70.70;;;;;;5082847;27;48058;-70
2022/11/18 02:53:33;;;;;;;3.20;0.60;;;9.00;69.10;;;;;;5090598;27;46554;-71
2022/11/18 02:56:01;;;;;;;2.90;1.37;;;9.10;70.20;;;;;;5085106;27;46485;-70
2022/11/18 02:58:26;;;;;;;2.60;1.30;;;9.00;70.20;;;;;;5086648;27;46576;-70
2022/11/18 03:01:00;;;;;;;2.37;1.10;;;9.00;70.00;;;;;;5085235;27;47281;-70
2022/11/18 03:03:31;;;;;;;1.40;0.70;;;9.00;69.10;;;;;;5087215;27;46544;-72
2022/11/18 03:06:00;;;;;;;1.93;0.60;;;9.00;70.20;;;;;;5086679;27;46367;-69
2022/11/18 03:08:31;;;;;;;2.77;0.80;;;9.00;70.30;;;;;;5080367;27;46884;-72
2022/11/18 03:11:14;;;;;;;1.10;0.60;;;9.00;70.40;;;;;;5085825;27;46424;-71
2022/11/18 03:13:58;;;;;;;1.93;0.70;;;8.90;69.80;;;;;;5087316;27;46600;-70
2022/11/18 03:16:55;;;;;;;1.20;0.60;;;8.90;70.80;;;;;;5087878;27;46465;-70
2022/11/18 03:20:05;;;;;;;0.90;0.60;;;8.90;71.10;;;;;;5081384;27;46467;-70
2022/11/18 03:22:54;;;;;;;1.77;0.83;;;8.80;70.40;;;;;;5025246;28;49234;-71
2022/11/18 03:25:30;;;;;;;2.53;0.93;;;8.80;71.30;;;;;;5081600;27;46414;-71
2022/11/18 03:28:18;;;;;;;1.97;1.00;;;8.80;71.40;;;;;;5079328;27;45934;-70
2022/11/18 03:30:52;;;;;;;2.30;0.60;;;8.80;71.60;;;;;;5079384;27;47496;-70
2022/11/18 03:33:23;;;;;;;1.37;0.60;;;8.70;70.70;;;;;;5082765;27;46332;-70
2022/11/18 03:35:52;;;;;;;0.90;0.60;;;8.70;71.80;;;;;;5086376;27;46394;-72
2022/11/18 03:38:24;;;;;;;3.00;0.60;;;8.70;71.90;;;;;;5084831;27;46356;-70
2022/11/18 03:40:56;;;;;;;2.00;0.80;;;8.70;71.60;;;;;;5084845;27;46757;-71
2022/11/18 03:43:25;;;;;;;2.37;0.70;;;8.70;70.70;;;;;;5082181;27;47541;-71
2022/11/18 03:46:12;;;;;;;1.23;0.60;;;8.70;71.80;;;;;;5080818;27;46368;-70
2022/11/18 03:48:43;;;;;;;0.90;0.50;;;8.70;71.70;;;;;;5086090;27;46676;-71
2022/11/18 03:51:14;;;;;;;0.90;0.60;;;8.70;71.70;;;;;;5082911;27;46361;-69
2022/11/18 03:53:46;;;;;;;2.23;0.63;;;8.80;70.50;;;;;;5081629;27;47432;-70
2022/11/18 03:56:18;;;;;;;1.20;0.60;;;8.80;71.70;;;;;;5086177;27;45845;-70
2022/11/18 03:58:55;;;;;;;1.47;0.67;;;8.80;71.50;;;;;;5082384;27;46283;-69
2022/11/18 04:01:27;;;;;;;1.10;0.60;;;8.80;72.60;;;;;;5085785;27;46331;-70
2022/11/18 04:03:53;;;;;;;1.37;0.70;;;8.80;70.40;;;;;;5085070;27;46534;-71
2022/11/18 04:06:44;;;;;;;1.10;0.60;;;8.80;71.70;;;;;;5084696;27;46464;-71
2022/11/18 04:09:17;;;;;;;0.90;0.60;;;8.80;71.70;;;;;;5082594;27;46428;-70
2022/11/18 04:12:04;;;;;;;1.47;0.60;;;8.80;71.90;;;;;;5082729;27;46437;-69
2022/11/18 04:14:41;;;;;;;1.70;0.60;;;8.80;70.70;;;;;;5085039;27;46550;-70
2022/11/18 04:17:09;;;;;;;7.83;0.70;;;8.80;71.70;;;;;;5079467;27;46343;-70
2022/11/18 04:19:35;;;;;;;1.00;0.50;;;8.80;71.70;;;;;;5082959;27;46321;-71
2022/11/18 04:22:00;;;;;;;1.10;0.60;;;8.80;71.70;;;;;;5082994;27;46431;-72
2022/11/18 04:24:26;;;;;;;2.30;0.60;;;8.80;70.70;;;;;;5082335;27;46936;-72
2022/11/18 04:26:52;;;;;;;4.10;0.70;;;8.80;71.90;;;;;;5083133;27;46290;-71
2022/11/18 04:29:17;;;;;;;0.90;0.60;;;8.80;72.10;;;;;;5085759;27;46460;-69
2022/11/18 04:31:43;;;;;;;1.30;0.70;;;8.80;73.30;;;;;;5081812;27;46443;-70
2022/11/18 04:34:09;;;;;;;1.13;0.60;;;8.80;71.00;;;;;;5084614;27;46715;-70
2022/11/18 04:36:34;;;;;;;1.07;0.60;;;8.80;72.00;;;;;;5086728;27;46243;-70
2022/11/18 04:39:00;;;;;;;0.90;0.60;;;8.80;71.90;;;;;;5086459;27;46436;-71
2022/11/18 04:41:54;;;;;;;1.00;0.50;;;8.80;72.00;;;;;;5083078;27;45898;-70
2022/11/18 04:44:14;;;;;;;1.20;0.60;;;8.80;71.10;;;;;;5084761;27;46650;-71
2022/11/18 04:46:40;;;;;;;1.00;0.60;;;8.80;72.20;;;;;;5083757;27;46338;-71
2022/11/18 04:49:07;;;;;;;1.20;0.60;;;8.90;72.50;;;;;;5082610;27;46542;-71
2022/11/18 04:51:33;;;;;;;1.53;0.60;;;8.90;72.30;;;;;;5086163;27;46396;-70
2022/11/18 04:53:58;;;;;;;1.93;0.80;;;8.80;71.20;;;;;;5084560;27;46950;-70
2022/11/18 04:56:24;;;;;;;0.90;0.50;;;8.80;72.40;;;;;;5081913;27;46398;-70
2022/11/18 04:58:49;;;;;;;1.07;0.67;;;8.80;72.50;;;;;;5082643;27;46460;-71
2022/11/18 05:01:15;;;;;;;1.20;0.60;;;8.70;72.60;;;;;;5080505;27;46623;-72
2022/11/18 05:03:40;;;;;;;0.90;0.50;;;8.50;72.30;;;;;;5083552;27;46473;-69
2022/11/18 05:06:06;;;;;;;1.10;0.70;;;8.40;73.50;;;;;;5083537;27;46407;-70
2022/11/18 05:08:32;;;;;;;1.00;0.60;;;8.30;73.90;;;;;;5085573;27;46388;-71
2022/11/18 05:12:47;;;;;;;1.20;0.60;;;8.30;74.00;;;;;;5085628;27;46637;-72
2022/11/18 05:13:43;;;;;;;2.80;0.70;;;8.20;73.00;;;;;;5084116;27;47006;-71
2022/11/18 05:16:08;;;;;;;1.30;0.60;;;8.20;74.10;;;;;;5083506;27;46415;-72
2022/11/18 05:18:34;;;;;;;1.03;0.60;;;8.30;73.90;;;;;;5082631;27;46591;-70
2022/11/18 05:21:04;;;;;;;2.43;0.80;;;8.40;73.70;;;;;;5085902;27;46084;-70
2022/11/18 05:23:30;;;;;;;3.17;0.70;;;8.40;72.30;;;;;;5086390;27;46719;-72
2022/11/18 05:25:55;;;;;;;2.17;0.80;;;8.40;73.20;;;;;;5080774;27;46448;-70
2022/11/18 05:28:21;;;;;;;1.27;0.70;;;8.40;73.00;;;;;;5079417;27;46614;-70
2022/11/18 05:30:46;;;;;;;1.30;0.80;;;8.50;72.90;;;;;;5086936;27;46587;-69
2022/11/18 05:33:12;;;;;;;1.00;0.67;;;8.50;71.60;;;;;;5088301;27;46379;-71
2022/11/18 05:35:37;;;;;;;1.57;0.60;;;8.60;72.90;;;;;;5084452;27;46771;-71
2022/11/18 05:38:03;;;;;;;3.00;0.70;;;8.60;72.50;;;;;;5081397;27;46800;-70
2022/11/18 05:40:29;;;;;;;3.73;0.70;;;8.60;72.40;;;;;;5085302;27;46131;-71
2022/11/18 05:43:09;;;;;;;1.47;0.70;;;8.60;71.40;;;;;;5085032;27;47174;-70
2022/11/18 05:45:35;;;;;;;2.20;0.80;;;8.60;72.40;;;;;;5082438;27;46419;-69
2022/11/18 05:48:03;;;;;;;2.03;0.73;;;8.70;72.30;;;;;;5084807;27;46392;-70
2022/11/18 05:50:29;;;;;;;1.13;0.80;;;8.70;72.40;;;;;;5084009;27;46339;-71
2022/11/18 05:52:55;;;;;;;3.00;0.90;;;8.70;71.50;;;;;;5083170;27;46441;-69
2022/11/18 05:55:24;;;;;;;1.50;0.60;;;8.70;72.40;;;;;;5082766;27;46476;-70
2022/11/18 05:57:50;;;;;;;1.50;0.77;;;8.70;72.30;;;;;;5086387;27;46607;-70
2022/11/18 06:00:16;;;;;;;1.20;0.60;;;8.70;72.40;;;;;;5086955;27;46766;-71
2022/11/18 06:02:44;;;;;;;1.27;0.77;;;8.60;71.80;;;;;;5084124;27;46536;-71
2022/11/18 06:05:12;;;;;;;1.20;0.70;;;8.60;72.90;;;;;;5081331;27;46017;-70
2022/11/18 06:07:42;;;;;;;1.60;0.70;;;8.60;72.80;;;;;;5085060;27;46598;-71
2022/11/18 06:10:11;;;;;;;1.03;0.53;;;8.60;72.90;;;;;;5082411;27;46464;-69
2022/11/18 06:12:41;;;;;;;1.23;0.60;;;8.50;71.90;;;;;;5083460;27;46472;-71
2022/11/18 06:15:30;;;;;;;1.00;0.60;;;8.50;72.80;;;;;;5083143;27;46354;-71
2022/11/18 06:18:04;;;;;;;1.20;0.60;;;8.40;73.00;;;;;;5088666;27;46419;-71
2022/11/18 06:20:34;;;;;;;1.00;0.60;;;8.30;73.00;;;;;;5086933;27;46356;-70
2022/11/18 06:23:00;;;;;;;1.40;0.67;;;8.40;71.90;;;;;;5083130;27;47348;-71
2022/11/18 06:25:27;;;;;;;1.10;0.73;;;8.40;72.80;;;;;;5087712;27;46524;-71
2022/11/18 06:27:56;;;;;;;1.50;0.80;;;8.40;72.90;;;;;;5084516;27;46837;-71
2022/11/18 06:30:22;;;;;;;33.43;15.20;;;8.40;72.80;;;;;;5086739;27;46652;-69
2022/11/18 06:32:47;;;;;;;4.60;2.40;;;8.50;72.00;;;;;;5086486;27;47821;-71
2022/11/18 06:35:13;;;;;;;11.70;5.77;;;8.50;72.80;;;;;;5088645;27;46456;-70
2022/11/18 06:37:39;;;;;;;7.03;3.23;;;8.50;71.70;;;;;;5088984;27;46339;-71
2022/11/18 06:40:05;;;;;;;4.20;2.50;;;8.50;72.90;;;;;;5089479;27;46035;-71
2022/11/18 06:45:15;;;;;;;1.87;1.00;;;9.00;74.10;;;;;;5086103;27;46480;-72
2022/11/18 06:47:40;;;;;;;1.17;0.70;;;8.30;73.70;;;;;;5088909;27;46610;-71
2022/11/18 06:50:06;;;;;;;7.03;0.90;;;8.30;74.10;;;;;;5089577;27;46591;-69
2022/11/18 06:52:32;;;;;;;4.10;0.70;;;8.20;73.50;;;;;;5084200;27;46525;-71
2022/11/18 06:54:58;;;;;;;1.00;0.60;;;8.20;74.50;;;;;;5088083;27;46485;-70
2022/11/18 06:57:23;;;;;;;1.10;0.50;;;8.20;74.70;;;;;;5086558;27;46340;-69
2022/11/18 06:59:49;;;;;;;1.17;0.60;;;8.20;74.70;;;;;;5118752;27;46655;-70
2022/11/18 07:02:17;;;;;;;2.43;0.60;;;8.20;75.00;;;;;;5086467;27;46649;-70
2022/11/18 07:04:46;;;;;;;15.13;8.87;;;8.20;74.10;;;;;;5083032;27;46384;-71
2022/11/18 07:07:11;;;;;;;1.53;0.90;;;8.20;75.20;;;;;;5087742;27;45970;-70
2022/11/18 07:09:37;;;;;;;1.50;0.73;;;8.20;75.20;;;;;;5086738;27;46540;-70
2022/11/18 07:12:03;;;;;;;2.80;0.73;;;8.20;75.10;;;;;;5086384;27;48973;-71
2022/11/18 07:14:30;;;;;;;1.03;0.60;;;9.60;75.40;;;;;;5117835;27;46357;-71
2022/11/18 07:16:55;;;;;;;1.00;0.50;;;8.30;75.20;;;;;;5089063;27;46380;-70
2022/11/18 07:19:21;;;;;;;2.43;0.80;;;8.00;76.30;;;;;;5086709;27;46378;-71
2022/11/18 07:21:47;;;;;;;1.10;0.60;;;8.30;75.50;;;;;;5081362;27;47279;-71
2022/11/18 07:24:14;;;;;;;2.87;0.63;;;8.30;74.10;;;;;;5084398;27;46475;-70
2022/11/18 07:26:40;;;;;;;1.10;0.70;;;8.40;75.30;;;;;;5083815;27;46517;-69
2022/11/18 07:29:06;;;;;;;2.37;0.60;;;8.40;75.10;;;;;;5086249;27;45855;-69
2022/11/18 07:31:34;;;;;;;1.20;0.70;;;8.40;75.10;;;;;;5117837;27;48153;-69
2022/11/18 07:34:00;;;;;;;1.10;0.60;;;8.50;73.80;;;;;;5078070;27;46393;-71
2022/11/18 07:36:27;;;;;;;2.23;0.80;;;8.50;74.90;;;;;;5085075;27;46780;-70
2022/11/18 07:38:53;;;;;;;1.83;0.70;;;8.50;75.10;;;;;;5084972;27;46570;-70
2022/11/18 07:41:22;;;;;;;1.10;0.70;;;8.50;75.10;;;;;;5092868;27;47357;-71
2022/11/18 07:43:49;;;;;;;1.20;0.70;;;8.50;74.10;;;;;;5082854;27;46626;-72
2022/11/18 07:46:26;;;;;;;1.00;0.60;;;8.50;75.10;;;;;;5086085;27;45923;-71
2022/11/18 07:48:54;;;;;;;1.13;0.70;;;8.50;74.90;;;;;;5085684;27;46488;-70
2022/11/18 07:51:22;;;;;;;1.20;0.70;;;8.60;73.90;;;;;;5086799;27;46719;-72
2022/11/18 07:53:48;;;;;;;2.50;0.70;;;8.60;73.70;;;;;;5082266;27;46406;-69
2022/11/18 07:56:14;;;;;;;0.90;0.60;;;8.60;74.80;;;;;;5086901;27;46652;-71
2022/11/18 07:58:41;;;;;;;2.23;0.60;;;8.60;75.00;;;;;;5085569;27;46445;-71
2022/11/18 08:01:08;;;;;;;2.70;0.60;;;8.60;75.20;;;;;;5084485;27;46551;-69
2022/11/18 08:03:34;;;;;;;1.10;0.60;;;8.60;74.40;;;;;;5079015;27;46479;-71
2022/11/18 08:06:01;;;;;;;1.20;0.60;;;8.60;75.60;;;;;;5085550;27;46554;-72
2022/11/18 08:08:27;;;;;;;2.20;0.60;;;8.60;75.40;;;;;;5092729;27;46562;-70
2022/11/18 08:11:00;;;;;;;2.20;0.70;;;8.60;75.50;;;;;;5084914;27;46539;-70
2022/11/18 08:13:27;;;;;;;2.20;0.70;;;8.70;74.50;;;;;;5085659;27;46479;-73
2022/11/18 08:15:54;;;;;;;2.70;0.70;;;8.70;75.60;;;;;;5087570;27;46360;-72
2022/11/18 08:18:20;;;;;;;1.03;0.70;;;8.60;75.60;;;;;;5082306;27;46354;-70
2022/11/18 08:20:46;;;;;;;2.73;0.70;;;8.60;75.80;;;;;;5102172;27;48581;-71
2022/11/18 08:23:12;;;;;;;1.10;0.70;;;8.60;74.80;;;;;;5085592;27;46437;-69
2022/11/18 08:25:38;;;;;;;1.23;0.73;;;8.60;75.80;;;;;;5086278;27;46737;-70
2022/11/18 08:28:03;;;;;;;1.20;0.70;;;8.60;75.70;;;;;;5083408;27;46513;-68
2022/11/18 08:30:29;;;;;;;1.20;0.70;;;8.70;75.50;;;;;;5085407;27;46398;-70
2022/11/18 08:32:55;;;;;;;1.20;0.80;;;8.90;73.90;;;;;;5084386;27;46422;-69
2022/11/18 08:35:21;;;;;;;3.00;0.70;;;8.90;73.70;;;;;;5084802;27;46514;-68
2022/11/18 08:37:46;;;;;;;1.43;0.80;;;8.90;74.50;;;;;;5084525;27;46424;-69
2022/11/18 08:40:12;;;;;;;1.43;0.80;;;9.00;74.40;;;;;;5081440;27;46350;-70
2022/11/18 08:42:38;;;;;;;1.20;0.80;;;9.00;73.10;;;;;;5079941;27;46957;-67
2022/11/18 08:45:07;;;;;;;1.30;0.87;;;9.00;74.10;;;;;;5080384;27;46420;-66
2022/11/18 08:47:33;;;;;;;2.13;1.10;;;9.20;74.10;;;;;;5083479;27;46434;-67
2022/11/18 08:49:58;;;;;;;3.10;1.00;;;9.10;73.90;;;;;;5083058;27;47137;-67
2022/11/18 08:52:24;;;;;;;1.67;1.10;;;9.00;73.50;;;;;;5086018;27;46460;-68
2022/11/18 08:54:50;;;;;;;2.00;1.13;;;9.00;72.70;;;;;;5083729;27;46535;-70
2022/11/18 08:57:15;;;;;;;3.27;1.07;;;9.00;73.60;;;;;;5083673;27;45971;-70
2022/11/18 08:59:41;;;;;;;4.97;2.30;;;9.10;73.60;;;;;;5083197;27;47425;-70
2022/11/18 09:02:13;;;;;;;18.03;8.83;;;9.10;73.50;;;;;;5085604;27;46427;-69
2022/11/18 09:04:39;;;;;;;3.47;1.87;;;9.10;72.30;;;;;;5080556;27;46466;-72
2022/11/18 09:07:05;;;;;;;5.53;1.40;;;9.20;73.50;;;;;;5085828;27;46397;-71
2022/11/18 09:09:30;;;;;;;7.53;1.17;;;9.10;73.10;;;;;;5084576;27;46382;-70
2022/11/18 09:11:56;;;;;;;2.30;1.30;;;9.10;73.10;;;;;;5083639;27;46502;-72
2022/11/18 09:14:21;;;;;;;4.27;1.50;;;9.10;72.30;;;;;;5079587;27;46534;-69
2022/11/18 09:16:47;;;;;;;1.57;0.97;;;9.10;73.10;;;;;;5084701;27;46350;-69
2022/11/18 09:19:14;;;;;;;2.47;1.37;;;9.20;72.90;;;;;;5083393;27;47799;-68
2022/11/18 09:21:40;;;;;;;2.53;1.13;;;9.40;72.30;;;;;;5085239;27;46290;-70
2022/11/18 09:24:06;;;;;;;2.83;1.43;;;9.40;70.80;;;;;;5083560;27;46635;-69
2022/11/18 09:26:32;;;;;;;3.20;1.10;;;9.40;72.00;;;;;;5083375;27;46394;-72
2022/11/18 09:28:57;;;;;;;1.30;0.83;;;9.50;71.90;;;;;;5082637;27;46537;-73
2022/11/18 09:31:23;;;;;;;3.43;1.20;;;9.50;71.80;;;;;;5085422;27;46217;-72
2022/11/18 09:33:49;;;;;;;2.60;1.30;;;9.60;70.70;;;;;;5080022;27;46827;-71
2022/11/18 09:36:18;;;;;;;1.20;0.70;;;9.70;71.50;;;;;;5083860;27;46520;-71
2022/11/18 09:38:44;;;;;;;1.83;1.13;;;9.70;71.30;;;;;;5080482;27;46451;-72
2022/11/18 09:41:26;;;;;;;3.10;1.10;;;9.70;71.40;;;;;;5080725;27;46671;-71
2022/11/18 09:43:58;;;;;;;5.27;1.53;;;9.80;70.20;;;;;;5082166;27;45920;-66
2022/11/18 09:46:39;;;;;;;3.10;1.70;;;9.90;71.10;;;;;;5084104;27;46800;-69
2022/11/18 09:49:13;;;;;;;2.33;1.37;;;9.90;71.10;;;;;;5081597;27;46400;-72
2022/11/18 09:51:42;;;;;;;1.97;1.10;;;9.70;71.20;;;;;;5084015;27;47156;-72
2022/11/18 09:54:11;;;;;;;2.17;1.00;;;9.70;70.50;;;;;;5087842;27;46518;-71
2022/11/18 09:56:38;;;;;;;3.17;1.20;;;9.60;71.70;;;;;;5080350;27;46455;-70
2022/11/18 09:59:04;;;;;;;3.53;1.03;;;9.50;71.70;;;;;;5085488;27;47594;-69
2022/11/18 10:01:30;;;;;;;2.33;1.20;;;9.30;71.90;;;;;;5089160;27;46494;-69
2022/11/18 10:03:56;;;;;;;4.23;1.40;;;9.30;71.20;;;;;;5085934;27;46797;-69
2022/11/18 10:06:31;;;;;;;2.80;1.60;;;9.30;72.20;;;;;;5089011;27;46767;-70
2022/11/18 10:09:26;;;;;;;2.93;1.37;;;9.30;72.30;;;;;;5087415;27;47417;-69
2022/11/18 10:11:58;;;;;;;2.30;1.63;;;9.20;72.10;;;;;;5085061;27;46497;-70
2022/11/18 10:15:04;;;;;;;3.40;1.30;;;9.10;72.40;;;;;;5085604;27;46389;-68
2022/11/18 10:17:58;;;;;;;4.00;1.50;;;9.00;73.00;;;;;;5086207;27;46318;-71
2022/11/18 10:20:49;;;;;;;2.50;1.40;;;8.90;73.40;;;;;;5087158;27;46508;-72
2022/11/18 10:23:25;;;;;;;4.03;1.10;;;9.10;73.00;;;;;;5085104;27;46455;-69
2022/11/18 10:25:53;;;;;;;1.70;0.80;;;9.30;72.70;;;;;;5084729;27;46346;-71
2022/11/18 10:28:28;;;;;;;1.90;1.07;;;9.50;72.20;;;;;;5088190;27;46454;-70
2022/11/18 10:31:01;;;;;;;2.90;1.17;;;9.50;72.30;;;;;;5086083;27;47189;-69
2022/11/18 10:33:28;;;;;;;1.60;1.00;;;9.70;72.10;;;;;;5086837;27;46447;-68
2022/11/18 10:36:12;;;;;;;1.77;1.17;;;9.80;71.90;;;;;;5084192;27;46436;-69
2022/11/18 10:38:38;;;;;;;3.00;0.83;;;9.90;71.50;;;;;;5085450;27;45993;-70
2022/11/18 10:41:11;;;;;;;1.93;0.80;;;10.10;70.10;;;;;;5087518;27;46673;-70
2022/11/18 10:43:45;;;;;;;1.23;0.80;;;10.10;70.00;;;;;;5088971;27;46496;-70
2022/11/18 10:46:32;;;;;;;1.40;0.87;;;10.00;69.80;;;;;;5088087;27;46460;-71
2022/11/18 10:49:09;;;;;;;2.60;0.90;;;9.70;71.30;;;;;;5087278;27;46611;-69
2022/11/18 10:51:37;;;;;;;1.57;0.80;;;9.40;72.10;;;;;;5085360;27;46534;-65
2022/11/18 10:54:23;;;;;;;1.50;0.90;;;9.20;73.00;;;;;;5085475;27;46551;-70
2022/11/18 10:56:50;;;;;;;1.13;0.77;;;9.10;73.60;;;;;;5087205;27;45885;-66
2022/11/18 10:59:28;;;;;;;1.33;0.90;;;9.00;73.80;;;;;;5086611;27;46931;-69
2022/11/18 11:02:09;;;;;;;1.20;0.80;;;9.00;74.00;;;;;;5081711;27;47651;-66
2022/11/18 11:04:36;;;;;;;1.20;0.70;;;8.90;74.10;;;;;;5088155;27;46488;-68
2022/11/18 11:07:23;;;;;;;2.50;0.80;;;8.90;74.40;;;;;;5087016;27;46519;-70
2022/11/18 11:10:12;;;;;;;1.60;0.80;;;9.00;74.40;;;;;;5086617;27;46336;-70
2022/11/18 11:12:45;;;;;;;5.73;0.90;;;9.10;74.40;;;;;;5078608;27;48384;-67
2022/11/18 11:15:35;;;;;;;1.80;0.90;;;9.00;74.50;;;;;;5078697;27;46476;-70
2022/11/18 11:20:47;;;;;;;3.83;2.90;;;9.10;74.20;;;;;;5086423;27;46800;-67
2022/11/18 11:23:14;;;;;;;2.57;1.47;;;9.10;74.10;;;;;;5085505;27;46408;-70
2022/11/18 11:25:51;;;;;;;2.47;1.30;;;9.10;74.00;;;;;;5084096;27;46903;-69
2022/11/18 11:28:54;;;;;;;1.67;1.20;;;9.00;74.00;;;;;;5088203;27;46492;-69
2022/11/18 11:31:23;;;;;;;1.30;0.80;;;9.10;73.80;;;;;;5069201;27;46502;-69
2022/11/18 11:33:57;;;;;;;2.27;1.10;;;9.10;73.70;;;;;;5086550;27;47534;-67
2022/11/18 11:36:51;;;;;;;2.80;0.90;;;9.10;73.60;;;;;;5070419;27;46885;-69
2022/11/18 11:39:48;;;;;;;3.70;1.50;;;9.00;73.80;;;;;;5066158;27;46531;-69
2022/11/18 11:42:41;;;;;;;1.87;1.00;;;8.90;73.90;;;;;;5085929;27;46451;-71
2022/11/18 11:45:22;;;;;;;2.03;1.00;;;9.00;73.50;;;;;;5085146;27;46733;-70
2022/11/18 11:48:02;;;;;;;6.83;3.10;;;9.10;73.10;;;;;;5086924;27;45776;-70
2022/11/18 11:50:59;;;;;;;4.83;1.33;;;9.00;73.00;;;;;;5089050;27;46480;-70
2022/11/18 11:53:54;;;;;;;2.20;0.80;;;9.00;73.00;;;;;;5087102;27;46125;-70
2022/11/18 11:56:33;;;;;;;3.70;2.20;;;9.00;72.80;;;;;;5086589;27;46459;-68
2022/11/18 11:59:02;;;;;;;2.00;1.00;;;9.10;72.70;;;;;;5084859;27;46346;-69
2022/11/18 12:01:49;;;;;;;3.07;0.97;;;9.20;72.40;;;;;;5085852;27;46045;-66
2022/11/18 12:04:42;;;;;;;1.27;0.70;;;9.10;70.80;;;;;;5085187;27;46438;-69
2022/11/18 12:07:16;;;;;;;1.43;0.80;;;9.10;72.00;;;;;;5083846;27;46498;-70
2022/11/18 12:10:13;;;;;;;1.10;0.60;;;9.00;71.90;;;;;;5081173;27;46622;-70
2022/11/18 12:13:07;;;;;;;1.20;0.70;;;8.90;71.90;;;;;;5086438;27;46438;-70
2022/11/18 12:16:04;;;;;;;1.83;0.90;;;9.00;72.00;;;;;;5081053;27;46491;-67
2022/11/18 12:18:39;;;;;;;1.77;0.90;;;9.00;71.70;;;;;;5085910;27;46982;-67
2022/11/18 12:21:05;;;;;;;1.43;0.90;;;8.90;70.30;;;;;;5089951;27;47181;-66
2022/11/18 12:23:32;;;;;;;1.67;0.90;;;8.90;71.50;;;;;;5086039;27;46827;-66
2022/11/18 12:26:10;;;;;;;1.67;0.60;;;9.00;71.30;;;;;;5085007;27;46445;-66
2022/11/18 12:28:41;;;;;;;1.60;0.80;;;9.10;70.00;;;;;;5084364;27;47353;-66
2022/11/18 12:31:20;;;;;;;1.37;0.83;;;9.10;70.90;;;;;;5084184;27;46405;-67
2022/11/18 12:34:04;;;;;;;1.47;0.97;;;9.10;69.70;;;;;;5083195;27;46399;-68
2022/11/18 12:36:31;;;;;;;1.10;0.60;;;9.20;70.70;;;;;;5084430;27;46593;-67
2022/11/18 12:38:58;;;;;;;1.50;0.80;;;9.30;70.40;;;;;;5085013;27;46122;-71
2022/11/18 12:44:42;;;;;;;1.73;0.60;;;9.40;70.00;;;;;;5084944;27;47131;-67
2022/11/18 12:47:13;;;;;;;1.10;0.63;;;9.30;70.20;;;;;;5085297;27;45858;-69
2022/11/18 12:49:44;;;;;;;1.00;0.67;;;9.40;70.20;;;;;;5087598;27;46450;-70
2022/11/18 12:52:28;;;;;;;1.93;0.80;;;9.50;69.80;;;;;;5081689;27;45885;-71
2022/11/18 12:54:56;;;;;;;1.10;0.60;;;9.50;68.80;;;;;;5084416;27;46547;-68
2022/11/18 12:57:27;;;;;;;1.23;0.60;;;9.40;70.00;;;;;;5084642;27;46681;-69
2022/11/18 12:59:53;;;;;;;6.87;3.10;;;9.30;70.30;;;;;;5082907;27;46359;-69
2022/11/18 13:02:21;;;;;;;1.97;0.80;;;9.20;70.70;;;;;;5083118;27;46380;-69
2022/11/18 13:05:02;;;;;;;2.80;0.77;;;9.20;69.50;;;;;;5083445;27;46364;-68
2022/11/18 13:10:33;;;;;;;1.40;0.90;;;9.10;71.00;;;;;;5086908;27;46728;-70
2022/11/18 13:12:59;;;;;;;1.30;0.90;;;9.20;71.00;;;;;;5081970;27;46382;-72
2022/11/18 13:18:14;;;;;;;1.17;0.70;;;9.30;71.00;;;;;;5084705;27;46484;-68
2022/11/18 13:20:41;;;;;;;1.30;0.90;;;9.40;71.70;;;;;;5088232;27;46616;-70
2022/11/18 13:26:30;;;;;;;2.23;1.00;;;9.40;70.60;;;;;;5082388;27;46864;-69
2022/11/18 13:29:25;;;;;;;1.23;0.90;;;9.30;71.10;;;;;;5076289;27;46532;-71
2022/11/18 13:32:21;;;;;;;1.83;0.80;;;9.30;71.30;;;;;;5085830;27;46536;-68
2022/11/18 13:34:50;;;;;;;2.97;1.13;;;9.30;70.60;;;;;;5079968;27;46348;-68
2022/11/18 13:37:19;;;;;;;1.40;0.83;;;9.20;71.90;;;;;;5075497;27;47174;-69
2022/11/18 13:39:45;;;;;;;1.10;0.80;;;9.20;72.00;;;;;;5086743;27;46626;-69
2022/11/18 13:42:16;;;;;;;1.37;0.80;;;9.20;71.90;;;;;;5080534;27;47773;-69
2022/11/18 13:44:50;;;;;;;1.30;0.70;;;9.20;71.10;;;;;;5081236;27;46457;-71
2022/11/18 13:47:34;;;;;;;2.13;1.00;;;9.20;73.50;;;;;;5086206;27;46342;-69